aviador You're here:

UKDE Decoded Metar

MOKRAYA in UKRAINE
Report Time2018-01-19 19:00:00
UTC Time2018-01-19 19:16:36
Flight Rules ifr IFR
Wind200° at 6 kt
W.Decomp.*RWY 20: 6.0 kt HW 0.4 kt LCW
W.Rank200° ranks 30
Current wind is below 200° avg. (7.6)
Visibility9999 m
Phenomena:N/A
Clouds:Overcast 006 Hf
Ceiling600 ft
Temp-1°C (ISA -15)
Dew Point-1°C (100% RH)
AAT-5.3°C
QNH1011 hPa
Density Alt-1,348 ft
Elevation371 ft
Report Wrong Elevation
Raw Report
UKDE 191900Z 20003MPS 9999 OVC006 M01/M01 Q1011 R02/690330
NOSIG=

Extra information for UKDE:More info

Metar Taf Metar & Taf Last 4 Metars F.Rules Stats Wind Profile Meteogram Temp Stats Airport Information Weather charts Add Link Nearby VenuesMetar ALERT Operation Metar Decoded Social comments